Time;durP1;ratioP1;P1;durP2;ratioP2;P2;SDS_P1;SDS_P2;PMS_P1;PMS_P2;Temp;Humidity;BMP_temperature;BMP_pressure;BME280_temperature;BME280_humidity;BME280_pressure;Samples;Min_cycle;Max_cycle;Signal;HPM_P1;HPM_P2
2022/04/23 00:02:42;;;;;;;16.50;10.00;;;;;;;8.61;94.16;99945.84;10212966;29;20727;-73
2022/04/23 00:07:46;;;;;;;14.43;8.97;;;;;;;8.65;94.34;99941.50;10216581;29;20224;-67
2022/04/23 00:12:50;;;;;;;16.23;8.80;;;;;;;8.62;93.55;99934.63;10217568;29;20220;-71
2022/04/23 00:17:53;;;;;;;15.77;9.80;;;;;;;8.62;93.34;99934.63;10217368;29;20228;-70
2022/04/23 00:22:59;;;;;;;15.83;9.70;;;;;;;8.67;93.63;99921.66;10217140;29;20360;-71
2022/04/23 00:28:03;;;;;;;16.27;10.23;;;;;;;8.66;93.71;99919.94;10217222;29;20676;-69
2022/04/23 00:33:06;;;;;;;16.90;9.90;;;;;;;8.62;93.78;99913.94;10216997;29;20270;-68
2022/04/23 00:38:11;;;;;;;19.77;9.93;;;;;;;8.66;92.79;99907.00;10216700;29;20234;-70
2022/04/23 00:43:26;;;;;;;20.87;12.07;;;;;;;8.60;93.64;99910.50;10216753;29;20227;-71
2022/04/23 00:48:30;;;;;;;16.63;10.07;;;;;;;8.64;96.89;99903.56;10217964;29;20226;-69
2022/04/23 00:53:36;;;;;;;17.37;10.40;;;;;;;8.62;96.25;99900.13;10216420;29;20224;-69
2022/04/23 00:58:39;;;;;;;17.20;10.07;;;;;;;8.63;97.47;99889.78;10216425;29;20231;-70
2022/04/23 01:03:43;;;;;;;16.07;10.33;;;;;;;8.67;98.33;99895.78;10216070;29;20224;-69
2022/04/23 01:08:48;;;;;;;16.63;10.20;;;;;;;8.66;98.86;99894.06;10216268;29;20730;-70
2022/04/23 01:13:51;;;;;;;16.70;10.03;;;;;;;8.65;97.03;99885.44;10216212;29;20227;-72
2022/04/23 01:18:54;;;;;;;15.50;10.07;;;;;;;8.65;97.09;99876.81;10215930;29;20221;-72
2022/04/23 01:23:59;;;;;;;18.27;10.90;;;;;;;8.53;96.73;99870.06;10215934;29;20233;-72
2022/04/23 01:29:04;;;;;;;18.17;10.60;;;;;;;8.56;97.41;99871.78;10216757;29;20239;-74
2022/04/23 01:34:07;;;;;;;16.43;10.83;;;;;;;8.51;97.38;99861.44;10215838;29;20224;-70
2022/04/23 01:39:11;;;;;;;17.03;9.90;;;;;;;8.53;97.63;99857.13;10215675;29;20231;-71
2022/04/23 01:44:15;;;;;;;18.47;11.13;;;;;;;8.49;98.76;99852.84;10215424;29;20233;-70
2022/04/23 01:49:18;;;;;;;17.57;10.93;;;;;;;8.45;96.90;99851.19;10215430;29;20307;-71
2022/04/23 01:54:23;;;;;;;15.73;10.57;;;;;;;8.47;98.04;99838.22;10219205;29;20225;-70
2022/04/23 01:59:26;;;;;;;16.23;10.53;;;;;;;8.47;97.45;99835.66;10222983;29;20224;-74
2022/04/23 02:04:30;;;;;;;20.37;11.40;;;;;;;8.41;98.38;99833.97;10222059;29;20572;-69
2022/04/23 02:09:35;;;;;;;20.60;10.90;;;;;;;8.35;97.30;99828.88;10223108;29;20227;-71
2022/04/23 02:14:38;;;;;;;20.03;10.80;;;;;;;8.26;97.68;99826.38;10222087;29;20217;-71
2022/04/23 02:19:42;;;;;;;18.03;10.23;;;;;;;8.30;98.40;99829.78;10221577;29;20329;-72
2022/04/23 02:24:47;;;;;;;15.40;10.17;;;;;;;8.31;100.00;99826.31;10221898;29;20240;-67
2022/04/23 02:29:50;;;;;;;18.20;10.70;;;;;;;8.31;100.00;99831.47;10221300;29;20225;-70
2022/04/23 02:34:54;;;;;;;15.37;9.93;;;;;;;8.28;100.00;99824.63;10221058;29;20235;-72
2022/04/23 02:39:59;;;;;;;18.77;10.90;;;;;;;8.28;100.00;99826.34;10220114;29;20236;-73
2022/04/23 02:45:03;;;;;;;18.13;11.80;;;;;;;8.32;100.00;99823.72;10221032;29;20268;-70
2022/04/23 02:50:07;;;;;;;18.53;11.80;;;;;;;8.33;100.00;99822.84;10221671;29;20613;-73
2022/04/23 02:55:12;;;;;;;17.63;11.77;;;;;;;8.21;100.00;99820.34;10220386;29;20229;-68
2022/04/23 03:00:15;;;;;;;21.63;12.27;;;;;;;8.28;100.00;99827.22;10220211;29;20546;-71
2022/04/23 03:05:19;;;;;;;18.93;10.73;;;;;;;8.24;100.00;99833.28;10219137;29;20259;-71
2022/04/23 03:10:23;;;;;;;19.17;11.27;;;;;;;8.17;100.00;99824.69;10219895;29;20533;-73
2022/04/23 03:15:27;;;;;;;19.23;11.03;;;;;;;8.19;100.00;99824.69;10219618;29;20216;-72
2022/04/23 03:20:30;;;;;;;18.67;12.13;;;;;;;8.16;100.00;99829.88;10219406;29;20237;-68
2022/04/23 03:25:35;;;;;;;19.70;12.27;;;;;;;8.21;100.00;99825.53;10219706;29;20238;-69
2022/04/23 03:30:38;;;;;;;20.10;11.03;;;;;;;8.21;100.00;99828.13;10220903;29;20213;-73
2022/04/23 03:35:42;;;;;;;17.87;10.93;;;;;;;8.20;100.00;99827.25;10218524;29;20220;-71
2022/04/23 03:40:53;;;;;;;17.10;11.13;;;;;;;8.23;100.00;99828.09;10218544;29;20229;-72
2022/04/23 03:45:56;;;;;;;17.17;10.93;;;;;;;8.18;100.00;99828.13;10218860;29;20237;-69
2022/04/23 03:50:59;;;;;;;15.17;10.57;;;;;;;8.22;100.00;99834.97;10218391;29;20225;-69
2022/04/23 03:56:05;;;;;;;15.63;10.00;;;;;;;8.25;100.00;99837.56;10218064;29;20232;-72
2022/04/23 04:01:08;;;;;;;20.03;11.40;;;;;;;8.31;100.00;99829.75;10218310;29;20229;-69
2022/04/23 04:06:12;;;;;;;17.80;10.93;;;;;;;8.31;100.00;99834.06;10218176;29;20291;-69
2022/04/23 04:11:16;;;;;;;15.93;9.90;;;;;;;8.39;100.00;99833.13;10218355;29;20227;-71
2022/04/23 04:16:23;;;;;;;16.57;9.50;;;;;;;8.40;100.00;99831.41;10216750;29;20684;-73
2022/04/23 04:21:26;;;;;;;15.13;9.83;;;;;;;8.40;100.00;99827.09;10178035;29;20582;-73
2022/04/23 04:26:32;;;;;;;15.17;9.73;;;;;;;8.32;100.00;99823.72;10177823;29;20244;-71
2022/04/23 04:31:51;;;;;;;17.20;10.27;;;;;;;8.36;100.00;99825.41;10178063;29;20235;-71
2022/04/23 04:37:04;;;;;;;15.43;10.20;;;;;;;8.46;100.00;99828.75;10177719;29;20225;-71
2022/04/23 04:42:11;;;;;;;17.37;9.63;;;;;;;8.41;100.00;99820.19;10177432;29;20306;-70
2022/04/23 04:47:14;;;;;;;16.97;9.73;;;;;;;8.51;100.00;99834.75;10178249;29;20243;-72
2022/04/23 04:52:18;;;;;;;17.17;8.73;;;;;;;8.55;100.00;99834.69;10177323;29;20221;-72
2022/04/23 04:57:22;;;;;;;15.63;9.73;;;;;;;8.66;100.00;99832.81;10177258;29;20289;-69
2022/04/23 05:02:26;;;;;;;14.73;9.37;;;;;;;8.67;100.00;99837.16;10177694;29;20222;-72
2022/04/23 05:07:30;;;;;;;12.73;8.67;;;;;;;8.71;100.00;99836.25;10176756;29;20248;-72
2022/04/23 05:12:34;;;;;;;12.80;8.77;;;;;;;8.76;100.00;99831.88;10176852;29;20234;-70
2022/04/23 05:17:38;;;;;;;10.87;6.97;;;;;;;8.87;100.00;99836.94;10176774;29;20229;-73
2022/04/23 05:22:42;;;;;;;14.17;8.40;;;;;;;8.91;100.00;99833.41;10176368;29;20238;-69
2022/04/23 05:27:46;;;;;;;11.83;6.80;;;;;;;8.98;100.00;99835.91;10178433;29;20249;-71
2022/04/23 05:32:49;;;;;;;11.47;6.63;;;;;;;8.99;100.00;99834.19;10184270;29;20217;-72
2022/04/23 05:37:53;;;;;;;14.30;7.47;;;;;;;9.07;100.00;99845.31;10184204;29;20240;-66
2022/04/23 05:42:58;;;;;;;24.13;12.83;;;;;;;9.07;100.00;99833.22;10183811;29;20240;-68
2022/04/23 05:48:02;;;;;;;13.07;5.50;;;;;;;9.16;99.78;99842.59;10183805;29;20232;-70
2022/04/23 05:53:05;;;;;;;10.40;5.80;;;;;;;9.16;99.23;99837.44;10191415;29;20227;-72
2022/04/23 05:58:10;;;;;;;9.47;6.13;;;;;;;9.27;98.46;99836.41;10226059;29;20217;-71
2022/04/23 06:03:14;;;;;;;10.43;6.07;;;;;;;9.37;99.20;99842.31;10219308;29;20217;-70
2022/04/23 06:08:17;;;;;;;10.97;5.70;;;;;;;9.40;99.74;99841.41;10221072;29;20283;-67
2022/04/23 06:13:22;;;;;;;11.70;5.30;;;;;;;9.55;96.21;99833.41;10221606;29;20216;-71
2022/04/23 06:18:26;;;;;;;7.40;4.70;;;;;;;9.63;94.73;99836.78;10220867;29;20275;-73
2022/04/23 06:23:29;;;;;;;11.30;5.50;;;;;;;9.71;96.83;99842.69;9880962;29;10000167;-67
2022/04/23 06:28:34;;;;;;;8.27;4.67;;;;;;;9.80;93.74;99816.66;10213570;29;20695;-70
2022/04/23 06:33:37;;;;;;;7.50;4.67;;;;;;;9.71;94.09;99819.38;10215182;29;20230;-70
2022/04/23 06:38:40;;;;;;;8.07;4.80;;;;;;;9.82;94.57;99817.47;10214669;29;20707;-68
2022/04/23 06:43:45;;;;;;;7.60;4.90;;;;;;;10.01;92.76;99813.72;10217994;29;20197;-64
2022/04/23 06:48:49;;;;;;;8.23;4.53;;;;;;;10.13;92.19;99822.16;10214611;29;20676;-67
2022/04/23 06:53:52;;;;;;;8.30;4.40;;;;;;;10.18;91.58;99816.91;10214797;29;20200;-66
2022/04/23 06:58:57;;;;;;;8.23;4.30;;;;;;;10.25;90.93;99808.16;10214200;29;20205;-65
2022/04/23 07:04:00;;;;;;;6.70;4.00;;;;;;;10.38;89.03;99809.63;10213879;29;20196;-67
2022/04/23 07:09:04;;;;;;;10.23;3.57;;;;;;;10.44;90.65;99818.13;10214707;29;20225;-70
2022/04/23 07:14:09;;;;;;;7.97;4.63;;;;;;;10.43;89.44;99813.84;10214427;29;20531;-65
2022/04/23 07:19:13;;;;;;;12.23;4.60;;;;;;;10.59;89.21;99814.41;10214148;29;20212;-67
2022/04/23 07:24:16;;;;;;;8.13;4.50;;;;;;;10.70;88.77;99807.25;10213664;29;20249;-67
2022/04/23 07:29:20;;;;;;;8.43;5.20;;;;;;;10.70;88.96;99806.44;10212032;29;20304;-67
2022/04/23 07:39:46;;;;;;;9.60;4.77;;;;;;;10.68;85.09;99798.69;10213074;29;20240;-66
2022/04/23 07:44:51;;;;;;;7.40;3.90;;;;;;;10.82;84.75;99795.81;10212097;29;20229;-67
2022/04/23 07:49:54;;;;;;;7.07;3.70;;;;;;;11.13;85.74;99797.72;10212624;29;20225;-67
2022/04/23 07:54:58;;;;;;;7.27;4.63;;;;;;;11.21;85.46;99794.97;10212772;29;20217;-69
2022/04/23 08:00:04;;;;;;;6.80;4.00;;;;;;;11.37;86.89;99797.19;10212250;29;20225;-70
2022/04/23 08:05:09;;;;;;;8.53;4.83;;;;;;;11.26;85.89;99798.31;10211805;29;20225;-71
2022/04/23 08:10:13;;;;;;;9.03;5.37;;;;;;;11.16;85.13;99792.47;10211999;29;20568;-70
2022/04/23 08:15:18;;;;;;;8.60;5.97;;;;;;;11.05;85.64;99791.84;10210967;29;20224;-68
2022/04/23 08:20:21;;;;;;;39.97;21.67;;;;;;;10.91;88.78;99791.28;10211493;29;20235;-68
2022/04/23 08:25:25;;;;;;;8.77;5.23;;;;;;;10.83;87.86;99790.59;10211737;29;20313;-71
2022/04/23 08:30:35;;;;;;;7.77;4.43;;;;;;;10.81;86.34;99792.34;10210605;29;20220;-71
2022/04/23 08:35:40;;;;;;;7.00;3.93;;;;;;;10.78;87.20;99786.38;10210593;29;20225;-71
2022/04/23 08:40:45;;;;;;;10.37;6.73;;;;;;;10.85;87.23;99783.63;10211244;29;20229;-71
2022/04/23 08:45:49;;;;;;;7.67;4.67;;;;;;;10.92;87.18;99784.34;10210761;29;20221;-69
2022/04/23 08:50:59;;;;;;;9.07;5.50;;;;;;;10.77;85.93;99784.66;10210440;29;20229;-69
2022/04/23 08:56:02;;;;;;;9.00;4.70;;;;;;;10.64;87.50;99786.63;10211110;29;20220;-65
2022/04/23 09:01:07;;;;;;;8.07;5.40;;;;;;;10.58;89.77;99780.72;10209828;29;20552;-66
2022/04/23 09:06:11;;;;;;;11.40;5.90;;;;;;;10.40;90.17;99782.78;10218309;29;20570;-69
2022/04/23 09:11:32;;;;;;;57.50;30.40;;;;;;;10.49;96.06;99786.94;10219136;29;20223;-69
2022/04/23 09:27:30;;;;;;;9.20;3.00;;;;;;;11.43;88.65;99765.00;10217920;29;20239;-70
2022/04/23 09:32:35;;;;;;;6.27;2.60;;;;;;;11.58;87.64;99767.25;10217953;29;20563;-70
2022/04/23 09:43:01;;;;;;;6.60;3.20;;;;;;;11.80;81.74;99758.09;10216937;29;20221;-69
2022/04/23 09:48:19;;;;;;;4.97;2.53;;;;;;;12.19;80.98;99756.22;10216950;29;20223;-70
2022/04/23 09:53:22;;;;;;;81.77;42.03;;;;;;;12.98;78.70;99758.31;10217338;29;20234;-70
2022/04/23 09:58:27;;;;;;;7.63;3.43;;;;;;;13.71;74.58;99738.66;10217989;29;20682;-71
2022/04/23 10:03:33;;;;;;;5.30;3.17;;;;;;;14.80;71.85;99738.31;10215895;29;20232;-69
2022/04/23 10:08:41;;;;;;;7.20;3.13;;;;;;;13.90;70.24;99732.81;10218508;29;20287;-74
2022/04/23 10:13:46;;;;;;;6.00;3.53;;;;;;;13.48;74.05;99734.19;10221141;29;20675;-69
2022/04/23 10:18:52;;;;;;;5.10;2.57;;;;;;;13.39;71.20;99744.91;10221549;29;20233;-73
2022/04/23 10:24:05;;;;;;;5.00;2.23;;;;;;;13.29;71.27;99734.81;10220961;29;20311;-68
2022/04/23 10:29:09;;;;;;;5.33;2.70;;;;;;;12.97;72.90;99742.72;10221973;29;20232;-71
2022/04/23 10:34:33;;;;;;;6.30;3.07;;;;;;;12.59;72.35;99746.44;10220886;29;20308;-70
2022/04/23 10:39:36;;;;;;;67.70;34.13;;;;;;;12.48;75.18;99753.69;10220017;29;20549;-70
2022/04/23 10:44:42;;;;;;;8.17;3.97;;;;;;;12.55;74.27;99743.06;10220643;29;20695;-70
2022/04/23 10:49:48;;;;;;;5.00;2.33;;;;;;;12.56;74.37;99746.53;10220314;29;20228;-70
2022/04/23 10:54:57;;;;;;;4.63;2.50;;;;;;;12.51;73.72;99741.44;10220621;29;20239;-70
2022/04/23 11:00:11;;;;;;;9.40;3.13;;;;;;;12.47;74.25;99744.19;10220683;29;20231;-69
2022/04/23 11:16:17;;;;;;;5.47;2.80;;;;;;;12.26;73.62;99755.16;10219546;29;20224;-70
2022/04/23 11:21:24;;;;;;;5.90;2.67;;;;;;;12.13;73.52;99756.38;10219272;29;20240;-68
2022/04/23 11:26:40;;;;;;;6.50;2.90;;;;;;;12.16;73.41;99751.97;10218277;29;20652;-70
2022/04/23 11:31:50;;;;;;;6.03;3.40;;;;;;;12.34;75.05;99755.78;10219340;29;20228;-67
2022/04/23 11:36:56;;;;;;;11.53;7.00;;;;;;;12.41;72.85;99754.75;10218446;29;20276;-66
2022/04/23 11:42:00;;;;;;;8.73;3.87;;;;;;;12.42;73.43;99752.13;10218192;29;20664;-69
2022/04/23 11:47:04;;;;;;;79.77;39.50;;;;;;;12.70;73.51;99749.59;10218206;29;20287;-68
2022/04/23 11:52:10;;;;;;;9.33;5.80;;;;;;;12.84;72.21;99744.81;10218202;29;20300;-68
2022/04/23 11:57:16;;;;;;;6.00;3.10;;;;;;;13.04;72.29;99737.34;10217874;29;20224;-68
2022/04/23 12:02:21;;;;;;;6.83;3.03;;;;;;;14.51;68.02;99725.47;10219564;29;20311;-68
2022/04/23 12:07:28;;;;;;;7.10;3.17;;;;;;;15.73;64.97;99718.09;10217411;29;20221;-70
2022/04/23 12:12:33;;;;;;;4.97;2.73;;;;;;;15.29;64.88;99717.22;10216946;29;20270;-69
2022/04/23 12:17:45;;;;;;;6.33;2.57;;;;;;;14.78;64.32;99720.09;10214009;29;20227;-67
2022/04/23 12:22:59;;;;;;;6.30;2.70;;;;;;;13.99;65.95;99717.72;10214132;29;20323;-68
2022/04/23 12:40:43;;;;;;;14.13;6.60;;;;;;;13.98;67.76;99716.88;10216730;29;20236;-70
2022/04/23 12:44:19;;;;;;;4.50;2.57;;;;;;;16.86;61.02;99710.53;10216439;29;20304;-68
2022/04/23 12:49:23;;;;;;;5.47;2.00;;;;;;;16.68;58.77;99703.50;10216705;29;20287;-67
2022/04/23 12:54:27;;;;;;;5.23;2.13;;;;;;;16.58;59.70;99703.06;10216854;29;20239;-67
2022/04/23 12:59:31;;;;;;;6.13;2.03;;;;;;;16.35;58.39;99703.19;10216416;29;20228;-69
2022/04/23 13:04:34;;;;;;;4.63;2.37;;;;;;;15.81;58.15;99701.16;10217104;29;20286;-68
2022/04/23 13:09:39;;;;;;;5.17;2.10;;;;;;;15.27;57.68;99700.78;10216232;29;20320;-65
2022/04/23 13:14:44;;;;;;;4.17;2.00;;;;;;;15.17;58.97;99701.19;10210545;29;20228;-67
2022/04/23 13:19:50;;;;;;;5.43;2.27;;;;;;;15.59;60.07;99695.13;9869653;28;10000238;-67
2022/04/23 13:24:55;;;;;;;4.27;2.10;;;;;;;15.65;59.19;99697.47;10209739;29;21014;-69
2022/04/23 13:29:59;;;;;;;4.30;1.77;;;;;;;15.42;59.28;99687.13;10209370;29;20255;-69
2022/04/23 13:35:02;;;;;;;6.33;3.00;;;;;;;16.22;56.50;99685.47;10212349;29;20304;-72
2022/04/23 13:40:09;;;;;;;6.27;2.63;;;;;;;17.69;55.69;99672.44;10209697;29;20731;-69
2022/04/23 13:45:16;;;;;;;5.67;2.00;;;;;;;17.63;53.85;99670.09;10209400;29;20236;-72
2022/04/23 13:50:20;;;;;;;3.77;1.70;;;;;;;17.02;53.60;99678.28;10213729;29;20688;-73
2022/04/23 13:55:25;;;;;;;2.83;1.20;;;;;;;17.40;51.62;99663.31;10216426;29;20290;-71
2022/04/23 14:00:28;;;;;;;4.63;1.20;;;;;;;17.53;51.32;99661.84;10216636;29;20225;-69
2022/04/23 14:10:54;;;;;;;5.20;1.03;;;;;;;18.34;51.19;99662.84;10216637;29;20239;-69
2022/04/23 14:15:58;;;;;;;2.73;0.90;;;;;;;19.44;48.75;99643.59;10215913;29;20643;-70
2022/04/23 14:21:02;;;;;;;3.00;1.07;;;;;;;18.80;47.05;99655.16;10216318;29;20236;-72
2022/04/23 14:26:07;;;;;;;2.77;1.20;;;;;;;18.29;49.52;99649.09;10215939;29;20711;-71
2022/04/23 14:31:10;;;;;;;2.63;0.90;;;;;;;18.74;47.42;99645.81;10215490;29;20255;-70
2022/04/23 14:36:14;;;;;;;2.87;1.30;;;;;;;19.20;47.69;99637.09;10215779;29;20225;-69
2022/04/23 14:41:19;;;;;;;6.40;1.00;;;;;;;18.04;47.90;99640.81;10215624;29;20215;-71
2022/04/23 14:46:22;;;;;;;2.60;1.00;;;;;;;16.82;49.86;99635.56;10214808;29;20937;-69
2022/04/23 14:56:48;;;;;;;2.47;0.80;;;;;;;15.65;53.07;99633.84;10215339;29;20636;-72
2022/04/23 15:01:51;;;;;;;2.40;1.00;;;;;;;15.21;53.81;99632.16;10215959;29;20723;-72
2022/04/23 15:06:55;;;;;;;36.17;17.20;;;;;;;14.95;56.22;99638.44;10213996;29;20642;-69
2022/04/23 15:12:00;;;;;;;5.83;1.73;;;;;;;14.70;56.52;99638.53;10214478;29;20271;-73
2022/04/23 15:17:04;;;;;;;4.70;2.10;;;;;;;14.51;59.06;99644.53;10213109;29;20316;-69
2022/04/23 15:22:08;;;;;;;2.70;1.07;;;;;;;14.29;59.26;99652.28;10213401;29;20247;-68
2022/04/23 15:27:13;;;;;;;2.50;0.90;;;;;;;14.27;57.91;99648.03;10213726;29;20288;-70
2022/04/23 15:32:16;;;;;;;3.37;1.37;;;;;;;14.02;59.23;99639.34;10214683;29;20320;-65
2022/04/23 15:37:20;;;;;;;4.50;1.20;;;;;;;13.85;60.18;99646.03;10212812;29;20283;-69
2022/04/23 15:42:24;;;;;;;3.57;1.30;;;;;;;13.79;60.94;99651.44;10213361;29;20664;-70
2022/04/23 15:47:28;;;;;;;5.37;1.43;;;;;;;13.84;60.69;99635.63;10212750;29;20230;-69
2022/04/23 15:52:32;;;;;;;4.60;1.50;;;;;;;13.80;62.99;99639.25;10212821;29;20235;-68
2022/04/23 15:57:36;;;;;;;5.43;1.20;;;;;;;13.72;62.34;99643.88;10213128;29;20220;-70
2022/04/23 16:02:40;;;;;;;5.53;2.43;;;;;;;13.76;60.92;99643.72;10215258;29;20323;-73
2022/04/23 16:07:44;;;;;;;5.60;2.30;;;;;;;13.75;61.66;99644.63;10210957;29;20826;-70
2022/04/23 16:12:48;;;;;;;4.90;1.50;;;;;;;13.72;62.93;99636.91;10211075;29;20228;-70
2022/04/23 16:18:12;;;;;;;3.50;1.13;;;;;;;13.58;64.44;99644.34;10211457;29;20234;-70
2022/04/23 16:23:15;;;;;;;3.70;1.40;;;;;;;13.43;65.96;99644.00;10211839;29;20634;-67
2022/04/23 16:28:20;;;;;;;4.00;1.77;;;;;;;13.38;63.53;99649.38;10211293;29;20231;-70
2022/04/23 16:33:23;;;;;;;4.60;2.03;;;;;;;13.35;65.70;99654.69;10212911;29;20357;-70
2022/04/23 16:49:10;;;;;;;5.20;2.63;;;;;;;13.27;67.21;99650.63;10211332;29;20231;-69
2022/04/23 16:54:13;;;;;;;16.17;8.97;;;;;;;13.14;67.69;99644.09;10209984;29;20238;-65
2022/04/23 16:59:18;;;;;;;5.53;2.90;;;;;;;13.11;66.28;99655.47;10210216;29;20224;-66
2022/04/23 17:04:27;;;;;;;5.80;2.33;;;;;;;12.96;66.91;99661.13;10211823;29;20557;-68
2022/04/23 17:09:30;;;;;;;4.77;2.10;;;;;;;12.85;68.41;99657.16;10210134;29;20232;-64
2022/04/23 17:14:35;;;;;;;6.30;3.03;;;;;;;12.73;69.33;99664.41;10210697;29;20221;-69
2022/04/23 17:19:41;;;;;;;6.53;2.63;;;;;;;12.64;70.02;99671.66;10209444;29;20255;-67
2022/04/23 17:24:45;;;;;;;6.83;2.70;;;;;;;12.46;70.42;99667.84;10213715;29;20232;-64
2022/04/23 17:29:51;;;;;;;6.47;2.90;;;;;;;12.34;72.72;99669.91;10218259;29;20233;-70
2022/04/23 17:34:54;;;;;;;7.77;2.80;;;;;;;12.38;69.68;99664.59;10219792;29;20213;-69
2022/04/23 17:40:00;;;;;;;6.17;3.37;;;;;;;12.41;70.99;99667.13;10217908;29;20661;-69
2022/04/23 17:45:07;;;;;;;10.10;6.03;;;;;;;12.35;69.79;99656.91;10214594;29;20220;-69
2022/04/23 17:50:14;;;;;;;7.30;3.30;;;;;;;12.35;69.06;99664.72;10217181;29;20244;-71
2022/04/23 17:55:17;;;;;;;7.43;3.13;;;;;;;12.24;68.43;99653.72;10216620;29;20231;-67
2022/04/23 18:11:04;;;;;;;6.10;3.67;;;;;;;12.09;69.05;99661.97;10222008;29;20370;-67
2022/04/23 18:16:09;;;;;;;7.83;4.43;;;;;;;12.05;68.52;99656.88;10221860;29;20635;-70
2022/04/23 18:21:14;;;;;;;7.23;3.03;;;;;;;12.02;69.05;99656.97;10221795;29;20398;-67
2022/04/23 18:26:17;;;;;;;8.37;3.60;;;;;;;11.91;69.89;99666.81;10221699;29;20306;-67
2022/04/23 18:31:22;;;;;;;7.20;3.47;;;;;;;11.85;70.04;99667.84;10221463;29;20233;-67
2022/04/23 18:36:25;;;;;;;8.07;3.50;;;;;;;11.77;70.74;99674.13;10220105;29;20688;-68
2022/04/23 18:41:29;;;;;;;6.00;3.33;;;;;;;11.71;70.33;99669.06;10220449;29;20225;-68
2022/04/23 18:46:34;;;;;;;7.13;3.83;;;;;;;11.54;72.71;99678.09;10220272;29;20336;-70
2022/04/23 18:51:38;;;;;;;7.83;4.20;;;;;;;11.42;73.33;99667.19;10220223;29;20557;-71
2022/04/23 18:56:41;;;;;;;5.77;3.17;;;;;;;11.38;73.16;99669.00;10220462;29;20217;-68
2022/04/23 19:01:46;;;;;;;7.50;3.70;;;;;;;11.31;73.31;99654.44;10220249;29;20291;-71
2022/04/23 19:06:51;;;;;;;8.77;3.70;;;;;;;11.37;72.74;99663.84;10220368;29;20221;-72
2022/04/23 19:11:54;;;;;;;8.00;4.13;;;;;;;11.33;74.13;99654.41;10222749;29;20629;-72
2022/04/23 19:17:08;;;;;;;8.27;4.07;;;;;;;11.20;78.10;99653.84;10219135;29;20684;-70
2022/04/23 19:27:33;;;;;;;8.70;4.53;;;;;;;11.10;76.51;99651.50;10219595;29;20307;-71
2022/04/23 19:32:39;;;;;;;8.00;3.90;;;;;;;11.12;76.30;99654.91;10219094;29;20689;-70
2022/04/23 19:37:42;;;;;;;8.60;4.40;;;;;;;11.12;78.04;99655.78;10219306;29;20275;-67
2022/04/23 19:42:46;;;;;;;13.80;4.20;;;;;;;11.15;77.03;99650.50;10221520;29;20587;-70
2022/04/23 19:47:51;;;;;;;9.73;4.47;;;;;;;11.19;78.33;99640.91;10217900;29;20320;-70
2022/04/23 19:52:54;;;;;;;8.83;4.20;;;;;;;11.14;76.53;99638.41;10218861;29;20241;-69
2022/04/23 19:57:58;;;;;;;10.57;6.23;;;;;;;11.04;78.57;99638.69;10218505;29;20204;-70
2022/04/23 20:03:03;;;;;;;7.83;4.53;;;;;;;11.02;78.48;99638.72;10218270;29;20201;-71
2022/04/23 20:08:07;;;;;;;8.67;4.53;;;;;;;10.93;79.68;99627.66;10217894;29;20237;-69
2022/04/23 20:13:10;;;;;;;8.93;4.33;;;;;;;10.91;79.48;99625.13;10221240;29;20332;-72
2022/04/23 20:18:15;;;;;;;6.63;3.80;;;;;;;10.92;79.15;99623.38;10217694;29;20636;-71
2022/04/23 20:23:19;;;;;;;8.20;4.07;;;;;;;10.93;77.77;99622.47;10217195;29;20239;-71
2022/04/23 20:28:23;;;;;;;9.07;4.30;;;;;;;11.00;77.72;99622.31;10217311;29;20222;-69
2022/04/23 20:33:27;;;;;;;7.50;4.17;;;;;;;11.06;77.15;99619.56;10216975;29;20231;-69
2022/04/23 20:38:31;;;;;;;7.87;3.87;;;;;;;11.04;76.01;99625.69;10216979;29;20251;-72
2022/04/23 20:43:35;;;;;;;7.23;4.00;;;;;;;11.08;75.50;99622.13;10217400;28;20197;-68
2022/04/23 20:48:40;;;;;;;10.47;6.07;;;;;;;11.05;75.49;99617.84;10217089;29;20216;-68
2022/04/23 20:53:43;;;;;;;8.67;4.30;;;;;;;11.14;76.14;99627.16;10214351;29;20981;-70
2022/04/23 20:58:48;;;;;;;7.27;4.37;;;;;;;11.16;77.29;99620.19;10211613;29;20764;-71
2022/04/23 21:03:53;;;;;;;8.50;4.17;;;;;;;11.18;76.08;99618.44;10210381;29;20220;-70
2022/04/23 21:08:56;;;;;;;7.27;4.20;;;;;;;11.19;76.57;99614.94;10208791;29;20221;-69
2022/04/23 21:13:59;;;;;;;7.17;3.93;;;;;;;11.20;77.16;99614.06;10210720;29;20225;-68
2022/04/23 21:19:04;;;;;;;7.90;4.00;;;;;;;11.16;76.09;99621.06;10210767;29;20726;-73
2022/04/23 21:24:08;;;;;;;8.50;4.17;;;;;;;11.18;76.41;99614.06;10209171;29;20236;-68
2022/04/23 21:29:11;;;;;;;7.47;3.83;;;;;;;11.27;76.32;99613.84;10209779;29;20220;-68
2022/04/23 21:34:16;;;;;;;9.73;5.40;;;;;;;11.28;75.73;99614.72;10209564;29;20576;-69
2022/04/23 21:39:19;;;;;;;12.93;6.53;;;;;;;11.21;76.05;99620.94;10211082;29;20220;-64
2022/04/23 21:49:45;;;;;;;18.20;7.93;;;;;;;11.04;78.10;99618.75;10251927;29;20227;-62
2022/04/23 21:54:49;;;;;;;12.07;6.67;;;;;;;11.10;77.73;99615.13;10238595;29;20271;-63
2022/04/23 21:59:53;;;;;;;14.27;6.57;;;;;;;11.17;78.68;99620.16;10211954;29;20308;-62
2022/04/23 22:04:58;;;;;;;11.03;6.33;;;;;;;11.16;77.79;99620.19;10212119;29;20224;-62
2022/04/23 22:10:01;;;;;;;10.20;6.37;;;;;;;11.16;78.80;99618.47;10213333;29;20255;-66
2022/04/23 22:15:06;;;;;;;12.03;7.23;;;;;;;11.16;78.81;99610.69;10218621;29;20237;-63
2022/04/23 22:20:12;;;;;;;11.93;6.30;;;;;;;11.15;79.81;99618.47;10218932;29;20248;-63
2022/04/23 22:25:15;;;;;;;14.23;7.60;;;;;;;11.11;79.72;99614.28;10218692;29;20243;-63
2022/04/23 22:30:18;;;;;;;14.20;8.33;;;;;;;11.12;79.89;99616.81;10218418;29;20303;-64
2022/04/23 22:35:23;;;;;;;11.63;7.53;;;;;;;11.08;79.90;99620.38;10217892;29;20224;-66
2022/04/23 22:40:26;;;;;;;15.80;8.90;;;;;;;11.10;80.73;99620.34;10217461;29;20223;-65
2022/04/23 22:45:31;;;;;;;10.43;6.60;;;;;;;11.02;80.48;99612.75;10217601;29;20228;-65
2022/04/23 22:50:35;;;;;;;13.73;6.10;;;;;;;10.90;81.19;99620.81;10218926;29;20228;-69
2022/04/23 22:55:39;;;;;;;13.60;6.30;;;;;;;10.90;82.52;99619.97;10220473;29;20565;-64
2022/04/23 23:00:42;;;;;;;11.73;6.13;;;;;;;10.83;81.94;99619.25;10220404;29;20227;-67
2022/04/23 23:05:49;;;;;;;9.80;5.70;;;;;;;10.85;82.46;99619.22;10220080;29;20221;-64
2022/04/23 23:10:52;;;;;;;10.53;6.17;;;;;;;10.75;82.27;99622.91;10220156;29;20252;-67
2022/04/23 23:15:55;;;;;;;11.30;6.10;;;;;;;10.72;83.47;99623.81;10220007;29;20260;-69
2022/04/23 23:21:00;;;;;;;12.30;5.57;;;;;;;10.62;83.50;99627.53;10218422;29;20565;-68
2022/04/23 23:26:03;;;;;;;12.37;5.73;;;;;;;10.68;83.11;99627.41;10219420;29;20221;-66
2022/04/23 23:31:06;;;;;;;11.23;6.07;;;;;;;10.61;83.30;99617.19;10219191;29;20228;-65
2022/04/23 23:36:11;;;;;;;8.63;4.73;;;;;;;10.55;83.41;99623.34;10218623;29;20217;-63
2022/04/23 23:41:14;;;;;;;9.47;5.10;;;;;;;10.46;84.23;99628.72;10219140;29;20224;-64
2022/04/23 23:46:18;;;;;;;9.97;5.20;;;;;;;10.38;84.89;99628.91;10218559;29;20323;-67
2022/04/23 23:51:22;;;;;;;9.83;4.60;;;;;;;10.33;85.25;99630.75;10218330;29;20232;-69
2022/04/23 23:56:26;;;;;;;10.17;5.00;;;;;;;10.23;85.42;99620.59;10217982;29;20225;-71
